sensor_id;sensor_type;location;lat;lon;timestamp;temperature;humidity
68354;DHT22;55274;43.060;25.618;2022-12-26T00:00:53;0.60;99.90
68354;DHT22;55274;43.060;25.618;2022-12-26T00:03:19;0.60;99.90
68354;DHT22;55274;43.060;25.618;2022-12-26T00:05:45;0.60;99.90
68354;DHT22;55274;43.060;25.618;2022-12-26T00:08:11;0.50;99.90
68354;DHT22;55274;43.060;25.618;2022-12-26T00:10:36;0.50;99.90
68354;DHT22;55274;43.060;25.618;2022-12-26T00:13:02;0.50;99.90
68354;DHT22;55274;43.060;25.618;2022-12-26T00:15:28;0.40;99.90
68354;DHT22;55274;43.060;25.618;2022-12-26T00:17:53;0.40;99.90
68354;DHT22;55274;43.060;25.618;2022-12-26T00:20:20;0.40;99.90
68354;DHT22;55274;43.060;25.618;2022-12-26T00:22:46;0.40;99.90
68354;DHT22;55274;43.060;25.618;2022-12-26T00:25:12;0.40;99.90
68354;DHT22;55274;43.060;25.618;2022-12-26T00:27:38;0.40;99.90
68354;DHT22;55274;43.060;25.618;2022-12-26T00:30:04;0.30;99.90
68354;DHT22;55274;43.060;25.618;2022-12-26T00:32:30;0.30;99.90
68354;DHT22;55274;43.060;25.618;2022-12-26T00:34:56;0.40;99.90
68354;DHT22;55274;43.060;25.618;2022-12-26T00:37:22;0.30;99.90
68354;DHT22;55274;43.060;25.618;2022-12-26T00:39:48;0.40;99.90
68354;DHT22;55274;43.060;25.618;2022-12-26T00:42:13;0.40;99.90
68354;DHT22;55274;43.060;25.618;2022-12-26T00:44:39;0.30;99.90
68354;DHT22;55274;43.060;25.618;2022-12-26T00:47:05;0.30;99.90
68354;DHT22;55274;43.060;25.618;2022-12-26T00:49:30;0.30;99.90
68354;DHT22;55274;43.060;25.618;2022-12-26T00:51:56;0.30;99.90
68354;DHT22;55274;43.060;25.618;2022-12-26T00:54:22;0.20;99.90
68354;DHT22;55274;43.060;25.618;2022-12-26T00:56:48;0.20;99.90
68354;DHT22;55274;43.060;25.618;2022-12-26T00:59:13;0.20;99.90
68354;DHT22;55274;43.060;25.618;2022-12-26T01:01:39;0.30;99.90
68354;DHT22;55274;43.060;25.618;2022-12-26T01:04:05;0.20;99.90
68354;DHT22;55274;43.060;25.618;2022-12-26T01:06:31;0.20;99.90
68354;DHT22;55274;43.060;25.618;2022-12-26T01:08:57;0.20;99.90
68354;DHT22;55274;43.060;25.618;2022-12-26T01:11:24;0.10;99.90
68354;DHT22;55274;43.060;25.618;2022-12-26T01:14:11;0.10;99.90
68354;DHT22;55274;43.060;25.618;2022-12-26T01:16:38;0.10;99.90
68354;DHT22;55274;43.060;25.618;2022-12-26T01:19:04;0.10;99.90
68354;DHT22;55274;43.060;25.618;2022-12-26T01:21:30;0.10;99.90
68354;DHT22;55274;43.060;25.618;2022-12-26T01:23:56;0.00;99.90
68354;DHT22;55274;43.060;25.618;2022-12-26T01:26:22;0.00;99.90
68354;DHT22;55274;43.060;25.618;2022-12-26T01:28:48;0.00;99.90
68354;DHT22;55274;43.060;25.618;2022-12-26T01:31:14;0.00;99.90
68354;DHT22;55274;43.060;25.618;2022-12-26T01:33:40;0.00;99.90
68354;DHT22;55274;43.060;25.618;2022-12-26T01:36:06;0.00;99.90
68354;DHT22;55274;43.060;25.618;2022-12-26T01:38:32;0.00;99.90
68354;DHT22;55274;43.060;25.618;2022-12-26T01:40:57;0.00;99.90
68354;DHT22;55274;43.060;25.618;2022-12-26T01:46:14;-0.10;99.90
68354;DHT22;55274;43.060;25.618;2022-12-26T01:48:40;-0.10;99.90
68354;DHT22;55274;43.060;25.618;2022-12-26T01:51:06;-0.10;99.90
68354;DHT22;55274;43.060;25.618;2022-12-26T01:53:38;-0.10;99.90
68354;DHT22;55274;43.060;25.618;2022-12-26T01:56:20;-0.10;99.90
68354;DHT22;55274;43.060;25.618;2022-12-26T01:59:15;-0.10;99.90
68354;DHT22;55274;43.060;25.618;2022-12-26T02:01:43;-0.20;99.90
68354;DHT22;55274;43.060;25.618;2022-12-26T02:04:13;-0.20;99.90
68354;DHT22;55274;43.060;25.618;2022-12-26T02:06:59;-0.20;99.90
68354;DHT22;55274;43.060;25.618;2022-12-26T02:09:26;-0.30;99.90
68354;DHT22;55274;43.060;25.618;2022-12-26T02:12:10;-0.30;99.90
68354;DHT22;55274;43.060;25.618;2022-12-26T02:14:38;-0.30;99.90
68354;DHT22;55274;43.060;25.618;2022-12-26T02:17:04;-0.30;99.90
68354;DHT22;55274;43.060;25.618;2022-12-26T02:30:46;-0.20;99.90
68354;DHT22;55274;43.060;25.618;2022-12-26T02:42:25;-0.30;99.90
68354;DHT22;55274;43.060;25.618;2022-12-26T02:45:42;-0.30;99.90
68354;DHT22;55274;43.060;25.618;2022-12-26T02:51:18;-0.30;99.90
68354;DHT22;55274;43.060;25.618;2022-12-26T02:56:55;-0.30;99.90
68354;DHT22;55274;43.060;25.618;2022-12-26T02:59:56;-0.40;99.90
68354;DHT22;55274;43.060;25.618;2022-12-26T03:02:49;-0.30;99.90
68354;DHT22;55274;43.060;25.618;2022-12-26T03:05:41;-0.30;99.90
68354;DHT22;55274;43.060;25.618;2022-12-26T03:11:38;-0.40;99.90
68354;DHT22;55274;43.060;25.618;2022-12-26T03:14:29;-0.40;99.90
68354;DHT22;55274;43.060;25.618;2022-12-26T03:17:00;-0.40;99.90
68354;DHT22;55274;43.060;25.618;2022-12-26T03:20:01;-0.50;99.90
68354;DHT22;55274;43.060;25.618;2022-12-26T03:25:38;-0.40;99.90
68354;DHT22;55274;43.060;25.618;2022-12-26T03:28:21;-0.50;99.90
68354;DHT22;55274;43.060;25.618;2022-12-26T03:30:47;-0.40;99.90
68354;DHT22;55274;43.060;25.618;2022-12-26T03:33:15;-0.40;99.90
68354;DHT22;55274;43.060;25.618;2022-12-26T03:36:00;-0.50;99.90
68354;DHT22;55274;43.060;25.618;2022-12-26T03:41:24;-0.50;99.90
68354;DHT22;55274;43.060;25.618;2022-12-26T03:44:34;-0.50;99.90
68354;DHT22;55274;43.060;25.618;2022-12-26T03:47:30;-0.60;99.90
68354;DHT22;55274;43.060;25.618;2022-12-26T03:50:30;-0.60;99.90
68354;DHT22;55274;43.060;25.618;2022-12-26T03:53:30;-0.60;99.90
68354;DHT22;55274;43.060;25.618;2022-12-26T03:56:29;-0.60;99.90
68354;DHT22;55274;43.060;25.618;2022-12-26T03:59:18;-0.60;99.90
68354;DHT22;55274;43.060;25.618;2022-12-26T04:02:05;-0.60;99.90
68354;DHT22;55274;43.060;25.618;2022-12-26T04:04:53;-0.60;99.90
68354;DHT22;55274;43.060;25.618;2022-12-26T04:07:42;-0.70;99.90
68354;DHT22;55274;43.060;25.618;2022-12-26T04:10:34;-0.70;99.90
68354;DHT22;55274;43.060;25.618;2022-12-26T04:13:27;-0.70;99.90
68354;DHT22;55274;43.060;25.618;2022-12-26T04:16:32;-0.70;99.90
68354;DHT22;55274;43.060;25.618;2022-12-26T04:22:01;-0.70;99.90
68354;DHT22;55274;43.060;25.618;2022-12-26T04:27:41;-0.70;99.90
68354;DHT22;55274;43.060;25.618;2022-12-26T04:30:25;-0.70;99.90
68354;DHT22;55274;43.060;25.618;2022-12-26T04:33:17;-0.80;99.90
68354;DHT22;55274;43.060;25.618;2022-12-26T04:36:08;-0.80;99.90
68354;DHT22;55274;43.060;25.618;2022-12-26T04:38:59;-0.80;99.90
68354;DHT22;55274;43.060;25.618;2022-12-26T04:41:45;-0.80;99.90
68354;DHT22;55274;43.060;25.618;2022-12-26T04:44:32;-0.80;99.90
68354;DHT22;55274;43.060;25.618;2022-12-26T04:46:58;-0.80;99.90
68354;DHT22;55274;43.060;25.618;2022-12-26T04:49:24;-0.80;99.90
68354;DHT22;55274;43.060;25.618;2022-12-26T04:52:11;-0.80;99.90
68354;DHT22;55274;43.060;25.618;2022-12-26T04:54:37;-0.80;99.90
68354;DHT22;55274;43.060;25.618;2022-12-26T04:57:04;-0.80;99.90
68354;DHT22;55274;43.060;25.618;2022-12-26T04:59:30;-0.80;99.90
68354;DHT22;55274;43.060;25.618;2022-12-26T05:01:56;-0.80;99.90
68354;DHT22;55274;43.060;25.618;2022-12-26T05:04:40;-0.90;99.90
68354;DHT22;55274;43.060;25.618;2022-12-26T05:07:28;-0.90;99.90
68354;DHT22;55274;43.060;25.618;2022-12-26T05:10:24;-0.90;99.90
68354;DHT22;55274;43.060;25.618;2022-12-26T05:12:50;-0.90;99.90
68354;DHT22;55274;43.060;25.618;2022-12-26T05:15:16;-0.90;99.90
68354;DHT22;55274;43.060;25.618;2022-12-26T05:17:42;-0.90;99.90
68354;DHT22;55274;43.060;25.618;2022-12-26T05:20:26;-0.90;99.90
68354;DHT22;55274;43.060;25.618;2022-12-26T05:22:55;-0.90;99.90
68354;DHT22;55274;43.060;25.618;2022-12-26T05:25:42;-0.90;99.90
68354;DHT22;55274;43.060;25.618;2022-12-26T05:28:28;-1.00;99.90
68354;DHT22;55274;43.060;25.618;2022-12-26T05:31:09;-1.00;99.90
68354;DHT22;55274;43.060;25.618;2022-12-26T05:33:35;-1.10;99.90
68354;DHT22;55274;43.060;25.618;2022-12-26T05:36:22;-1.10;99.90
68354;DHT22;55274;43.060;25.618;2022-12-26T05:38:49;-1.20;99.90
68354;DHT22;55274;43.060;25.618;2022-12-26T05:41:15;-1.10;99.90
68354;DHT22;55274;43.060;25.618;2022-12-26T05:43:40;-1.10;99.90
68354;DHT22;55274;43.060;25.618;2022-12-26T05:46:06;-1.10;99.90
68354;DHT22;55274;43.060;25.618;2022-12-26T05:48:32;-1.10;99.90
68354;DHT22;55274;43.060;25.618;2022-12-26T05:50:59;-1.10;99.90
68354;DHT22;55274;43.060;25.618;2022-12-26T05:53:26;-1.10;99.90
68354;DHT22;55274;43.060;25.618;2022-12-26T05:55:52;-1.00;99.90
68354;DHT22;55274;43.060;25.618;2022-12-26T05:58:18;-1.00;99.90
68354;DHT22;55274;43.060;25.618;2022-12-26T06:00:44;-1.10;99.90
68354;DHT22;55274;43.060;25.618;2022-12-26T06:03:09;-1.10;99.90
68354;DHT22;55274;43.060;25.618;2022-12-26T06:05:35;-1.10;99.90
68354;DHT22;55274;43.060;25.618;2022-12-26T06:08:01;-1.10;99.90
68354;DHT22;55274;43.060;25.618;2022-12-26T06:10:27;-1.10;99.90
68354;DHT22;55274;43.060;25.618;2022-12-26T06:12:55;-1.10;99.90
68354;DHT22;55274;43.060;25.618;2022-12-26T06:15:21;-1.10;99.90
68354;DHT22;55274;43.060;25.618;2022-12-26T06:17:47;-1.10;99.90
68354;DHT22;55274;43.060;25.618;2022-12-26T06:20:13;-1.00;99.90
68354;DHT22;55274;43.060;25.618;2022-12-26T06:22:39;-1.00;99.90
68354;DHT22;55274;43.060;25.618;2022-12-26T06:25:05;-1.00;99.90
68354;DHT22;55274;43.060;25.618;2022-12-26T06:27:31;-0.90;99.90
68354;DHT22;55274;43.060;25.618;2022-12-26T06:29:57;-0.90;99.90
68354;DHT22;55274;43.060;25.618;2022-12-26T06:32:22;-0.90;99.90
68354;DHT22;55274;43.060;25.618;2022-12-26T06:34:48;-0.80;99.90
68354;DHT22;55274;43.060;25.618;2022-12-26T06:37:14;-0.80;99.90
68354;DHT22;55274;43.060;25.618;2022-12-26T06:39:40;-0.80;99.90
68354;DHT22;55274;43.060;25.618;2022-12-26T06:42:05;-0.80;99.90
68354;DHT22;55274;43.060;25.618;2022-12-26T06:44:31;-0.70;99.90
68354;DHT22;55274;43.060;25.618;2022-12-26T06:46:57;-0.70;99.90
68354;DHT22;55274;43.060;25.618;2022-12-26T06:49:22;-0.70;99.90
68354;DHT22;55274;43.060;25.618;2022-12-26T06:51:51;-0.60;99.90
68354;DHT22;55274;43.060;25.618;2022-12-26T06:54:16;-0.60;99.90
68354;DHT22;55274;43.060;25.618;2022-12-26T06:56:42;-0.60;99.90
68354;DHT22;55274;43.060;25.618;2022-12-26T06:59:10;-0.50;99.90
68354;DHT22;55274;43.060;25.618;2022-12-26T07:01:36;-0.50;99.90
68354;DHT22;55274;43.060;25.618;2022-12-26T07:04:02;-0.40;99.90
68354;DHT22;55274;43.060;25.618;2022-12-26T07:06:36;-0.30;99.90
68354;DHT22;55274;43.060;25.618;2022-12-26T07:11:31;-0.30;99.90
68354;DHT22;55274;43.060;25.618;2022-12-26T07:13:58;-0.20;99.90
68354;DHT22;55274;43.060;25.618;2022-12-26T07:16:24;0.10;99.90
68354;DHT22;55274;43.060;25.618;2022-12-26T07:18:54;0.60;99.90
68354;DHT22;55274;43.060;25.618;2022-12-26T07:21:21;1.20;99.90
68354;DHT22;55274;43.060;25.618;2022-12-26T07:23:48;1.70;99.90
68354;DHT22;55274;43.060;25.618;2022-12-26T07:26:13;2.20;99.90
68354;DHT22;55274;43.060;25.618;2022-12-26T07:28:39;2.80;99.90
68354;DHT22;55274;43.060;25.618;2022-12-26T07:31:05;3.50;99.90
68354;DHT22;55274;43.060;25.618;2022-12-26T07:33:31;3.90;99.90
68354;DHT22;55274;43.060;25.618;2022-12-26T07:36:02;3.60;99.90
68354;DHT22;55274;43.060;25.618;2022-12-26T07:38:29;3.70;99.90
68354;DHT22;55274;43.060;25.618;2022-12-26T07:40:55;4.00;99.90
68354;DHT22;55274;43.060;25.618;2022-12-26T07:43:22;4.30;99.90
68354;DHT22;55274;43.060;25.618;2022-12-26T07:45:48;4.60;99.90
68354;DHT22;55274;43.060;25.618;2022-12-26T07:48:14;4.60;99.90
68354;DHT22;55274;43.060;25.618;2022-12-26T07:50:40;4.40;99.90
68354;DHT22;55274;43.060;25.618;2022-12-26T07:53:05;4.50;99.90
68354;DHT22;55274;43.060;25.618;2022-12-26T07:55:31;4.90;99.90
68354;DHT22;55274;43.060;25.618;2022-12-26T07:57:57;5.10;99.90
68354;DHT22;55274;43.060;25.618;2022-12-26T08:00:23;5.10;99.90
68354;DHT22;55274;43.060;25.618;2022-12-26T08:02:49;5.30;99.90
68354;DHT22;55274;43.060;25.618;2022-12-26T08:05:16;5.40;99.90
68354;DHT22;55274;43.060;25.618;2022-12-26T08:07:42;5.60;99.90
68354;DHT22;55274;43.060;25.618;2022-12-26T08:10:08;5.60;99.90
68354;DHT22;55274;43.060;25.618;2022-12-26T08:12:34;5.80;99.90
68354;DHT22;55274;43.060;25.618;2022-12-26T08:15:00;5.70;99.90
68354;DHT22;55274;43.060;25.618;2022-12-26T08:17:26;5.90;99.90
68354;DHT22;55274;43.060;25.618;2022-12-26T08:19:51;6.00;99.90
68354;DHT22;55274;43.060;25.618;2022-12-26T08:22:17;6.20;99.90
68354;DHT22;55274;43.060;25.618;2022-12-26T08:24:43;6.20;99.90
68354;DHT22;55274;43.060;25.618;2022-12-26T08:27:09;6.20;99.90
68354;DHT22;55274;43.060;25.618;2022-12-26T08:29:35;6.30;99.90
68354;DHT22;55274;43.060;25.618;2022-12-26T08:32:01;6.50;99.90
68354;DHT22;55274;43.060;25.618;2022-12-26T08:34:34;6.70;99.90
68354;DHT22;55274;43.060;25.618;2022-12-26T08:37:00;6.80;99.90
68354;DHT22;55274;43.060;25.618;2022-12-26T08:39:27;6.80;99.90
68354;DHT22;55274;43.060;25.618;2022-12-26T08:41:52;6.60;99.90
68354;DHT22;55274;43.060;25.618;2022-12-26T08:44:18;6.50;99.90
68354;DHT22;55274;43.060;25.618;2022-12-26T08:46:44;6.60;99.90
68354;DHT22;55274;43.060;25.618;2022-12-26T08:49:11;6.80;99.90
68354;DHT22;55274;43.060;25.618;2022-12-26T08:51:36;6.90;99.90
68354;DHT22;55274;43.060;25.618;2022-12-26T08:54:03;7.00;99.90
68354;DHT22;55274;43.060;25.618;2022-12-26T08:56:29;7.30;99.90
68354;DHT22;55274;43.060;25.618;2022-12-26T08:58:55;7.40;99.90
68354;DHT22;55274;43.060;25.618;2022-12-26T09:01:23;7.60;99.90
68354;DHT22;55274;43.060;25.618;2022-12-26T09:03:57;7.70;99.90
68354;DHT22;55274;43.060;25.618;2022-12-26T09:06:24;7.70;99.90
68354;DHT22;55274;43.060;25.618;2022-12-26T09:08:50;7.80;99.90
68354;DHT22;55274;43.060;25.618;2022-12-26T09:11:20;7.60;99.90
68354;DHT22;55274;43.060;25.618;2022-12-26T09:13:46;7.60;99.90
68354;DHT22;55274;43.060;25.618;2022-12-26T09:16:13;7.90;99.90
68354;DHT22;55274;43.060;25.618;2022-12-26T09:18:39;7.90;99.90
68354;DHT22;55274;43.060;25.618;2022-12-26T09:21:07;7.90;99.90
68354;DHT22;55274;43.060;25.618;2022-12-26T09:23:34;8.10;99.90
68354;DHT22;55274;43.060;25.618;2022-12-26T09:26:13;8.30;99.90
68354;DHT22;55274;43.060;25.618;2022-12-26T09:28:39;8.60;99.90
68354;DHT22;55274;43.060;25.618;2022-12-26T09:31:07;8.70;99.90
68354;DHT22;55274;43.060;25.618;2022-12-26T09:33:34;8.80;99.90
68354;DHT22;55274;43.060;25.618;2022-12-26T09:36:07;8.90;99.90
68354;DHT22;55274;43.060;25.618;2022-12-26T09:38:34;9.10;99.90
68354;DHT22;55274;43.060;25.618;2022-12-26T09:41:10;9.30;99.90
68354;DHT22;55274;43.060;25.618;2022-12-26T09:49:18;9.80;99.90
68354;DHT22;55274;43.060;25.618;2022-12-26T09:51:58;10.00;99.90
68354;DHT22;55274;43.060;25.618;2022-12-26T09:54:37;10.20;99.90
68354;DHT22;55274;43.060;25.618;2022-12-26T09:57:14;10.40;99.90
68354;DHT22;55274;43.060;25.618;2022-12-26T10:00:02;10.50;99.90
68354;DHT22;55274;43.060;25.618;2022-12-26T10:02:29;10.60;99.90
68354;DHT22;55274;43.060;25.618;2022-12-26T10:04:55;10.70;99.90
68354;DHT22;55274;43.060;25.618;2022-12-26T10:07:43;10.70;99.90
68354;DHT22;55274;43.060;25.618;2022-12-26T10:10:23;10.80;99.90
68354;DHT22;55274;43.060;25.618;2022-12-26T10:15:39;11.10;99.20
68354;DHT22;55274;43.060;25.618;2022-12-26T10:18:21;11.10;99.30
68354;DHT22;55274;43.060;25.618;2022-12-26T10:23:37;11.00;98.80
68354;DHT22;55274;43.060;25.618;2022-12-26T10:26:37;10.90;99.20
68354;DHT22;55274;43.060;25.618;2022-12-26T10:32:00;10.90;99.60
68354;DHT22;55274;43.060;25.618;2022-12-26T10:34:43;11.00;99.60
68354;DHT22;55274;43.060;25.618;2022-12-26T10:37:34;11.10;99.20
68354;DHT22;55274;43.060;25.618;2022-12-26T10:40:16;11.10;99.10
68354;DHT22;55274;43.060;25.618;2022-12-26T10:43:23;11.20;98.90
68354;DHT22;55274;43.060;25.618;2022-12-26T10:48:43;11.30;98.40
68354;DHT22;55274;43.060;25.618;2022-12-26T10:51:10;11.30;98.30
68354;DHT22;55274;43.060;25.618;2022-12-26T10:53:41;11.30;98.70
68354;DHT22;55274;43.060;25.618;2022-12-26T10:56:09;11.30;98.90
68354;DHT22;55274;43.060;25.618;2022-12-26T10:58:35;11.30;98.80
68354;DHT22;55274;43.060;25.618;2022-12-26T11:01:42;11.30;99.00
68354;DHT22;55274;43.060;25.618;2022-12-26T11:04:21;11.30;98.90
68354;DHT22;55274;43.060;25.618;2022-12-26T11:06:49;11.30;98.90
68354;DHT22;55274;43.060;25.618;2022-12-26T11:09:43;11.30;99.20
68354;DHT22;55274;43.060;25.618;2022-12-26T11:12:23;11.40;98.40
68354;DHT22;55274;43.060;25.618;2022-12-26T11:14:50;11.40;98.90
68354;DHT22;55274;43.060;25.618;2022-12-26T11:17:31;11.30;99.00
68354;DHT22;55274;43.060;25.618;2022-12-26T11:22:39;11.30;98.70
68354;DHT22;55274;43.060;25.618;2022-12-26T11:25:24;11.30;98.50
68354;DHT22;55274;43.060;25.618;2022-12-26T11:27:57;11.30;98.60
68354;DHT22;55274;43.060;25.618;2022-12-26T11:30:24;11.30;99.20
68354;DHT22;55274;43.060;25.618;2022-12-26T11:33:03;11.30;99.20
68354;DHT22;55274;43.060;25.618;2022-12-26T11:35:30;11.30;99.40
68354;DHT22;55274;43.060;25.618;2022-12-26T11:38:06;11.40;99.50
68354;DHT22;55274;43.060;25.618;2022-12-26T11:40:38;11.30;99.70
68354;DHT22;55274;43.060;25.618;2022-12-26T11:43:32;11.30;99.50
68354;DHT22;55274;43.060;25.618;2022-12-26T11:45:58;11.30;99.10
68354;DHT22;55274;43.060;25.618;2022-12-26T11:48:25;11.30;99.20
68354;DHT22;55274;43.060;25.618;2022-12-26T11:50:52;11.30;99.30
68354;DHT22;55274;43.060;25.618;2022-12-26T11:53:21;11.30;99.10
68354;DHT22;55274;43.060;25.618;2022-12-26T11:56:02;11.30;98.90
68354;DHT22;55274;43.060;25.618;2022-12-26T11:58:30;11.30;98.40
68354;DHT22;55274;43.060;25.618;2022-12-26T12:03:32;11.20;98.70
68354;DHT22;55274;43.060;25.618;2022-12-26T12:12:00;11.10;98.30
68354;DHT22;55274;43.060;25.618;2022-12-26T12:17:06;11.10;98.10
68354;DHT22;55274;43.060;25.618;2022-12-26T12:25:22;11.10;97.40
68354;DHT22;55274;43.060;25.618;2022-12-26T12:28:02;11.20;96.30
68354;DHT22;55274;43.060;25.618;2022-12-26T12:30:46;11.20;97.60
68354;DHT22;55274;43.060;25.618;2022-12-26T12:38:45;11.00;97.10
68354;DHT22;55274;43.060;25.618;2022-12-26T12:55:41;10.80;97.20
68354;DHT22;55274;43.060;25.618;2022-12-26T13:01:03;10.80;97.20
68354;DHT22;55274;43.060;25.618;2022-12-26T13:06:24;10.70;98.10
68354;DHT22;55274;43.060;25.618;2022-12-26T13:09:02;10.70;98.30
68354;DHT22;55274;43.060;25.618;2022-12-26T13:11:35;10.60;98.20
68354;DHT22;55274;43.060;25.618;2022-12-26T13:14:54;10.50;98.10
68354;DHT22;55274;43.060;25.618;2022-12-26T13:17:51;10.40;98.10
68354;DHT22;55274;43.060;25.618;2022-12-26T13:19:59;10.30;98.80
68354;DHT22;55274;43.060;25.618;2022-12-26T13:23:27;10.20;99.90
68354;DHT22;55274;43.060;25.618;2022-12-26T13:26:30;10.00;99.90
68354;DHT22;55274;43.060;25.618;2022-12-26T13:31:37;9.70;99.90
68354;DHT22;55274;43.060;25.618;2022-12-26T13:34:06;9.70;99.90
68354;DHT22;55274;43.060;25.618;2022-12-26T13:36:45;9.50;99.90
68354;DHT22;55274;43.060;25.618;2022-12-26T13:41:45;9.40;99.90
68354;DHT22;55274;43.060;25.618;2022-12-26T13:44:29;9.30;99.90
68354;DHT22;55274;43.060;25.618;2022-12-26T13:46:57;9.20;99.90
68354;DHT22;55274;43.060;25.618;2022-12-26T13:51:56;9.10;99.90
68354;DHT22;55274;43.060;25.618;2022-12-26T13:54:23;9.00;99.90
68354;DHT22;55274;43.060;25.618;2022-12-26T13:57:24;8.90;99.90
68354;DHT22;55274;43.060;25.618;2022-12-26T14:00:04;8.90;99.90
68354;DHT22;55274;43.060;25.618;2022-12-26T14:08:43;8.70;99.90
68354;DHT22;55274;43.060;25.618;2022-12-26T14:11:40;8.60;99.90
68354;DHT22;55274;43.060;25.618;2022-12-26T14:23:05;8.30;99.90
68354;DHT22;55274;43.060;25.618;2022-12-26T14:25:51;8.20;99.90
68354;DHT22;55274;43.060;25.618;2022-12-26T14:31:15;8.00;99.90
68354;DHT22;55274;43.060;25.618;2022-12-26T14:33:57;8.00;99.90
68354;DHT22;55274;43.060;25.618;2022-12-26T14:44:55;7.50;99.90
68354;DHT22;55274;43.060;25.618;2022-12-26T14:50:36;7.30;99.90
68354;DHT22;55274;43.060;25.618;2022-12-26T14:53:33;7.30;99.90
68354;DHT22;55274;43.060;25.618;2022-12-26T15:14:54;6.60;99.90
68354;DHT22;55274;43.060;25.618;2022-12-26T15:17:52;6.50;99.90
68354;DHT22;55274;43.060;25.618;2022-12-26T15:37:41;6.00;99.90
68354;DHT22;55274;43.060;25.618;2022-12-26T15:40:20;5.90;99.90
68354;DHT22;55274;43.060;25.618;2022-12-26T16:02:13;5.40;99.90
68354;DHT22;55274;43.060;25.618;2022-12-26T16:04:45;5.30;99.90
68354;DHT22;55274;43.060;25.618;2022-12-26T16:07:36;5.30;99.90
68354;DHT22;55274;43.060;25.618;2022-12-26T16:13:16;5.20;99.90
68354;DHT22;55274;43.060;25.618;2022-12-26T16:15:57;5.20;99.90
68354;DHT22;55274;43.060;25.618;2022-12-26T16:18:30;5.10;99.90
68354;DHT22;55274;43.060;25.618;2022-12-26T16:21:04;5.10;99.90
68354;DHT22;55274;43.060;25.618;2022-12-26T16:23:51;5.00;99.90
68354;DHT22;55274;43.060;25.618;2022-12-26T16:26:26;4.90;99.90
68354;DHT22;55274;43.060;25.618;2022-12-26T16:28:54;4.90;99.90
68354;DHT22;55274;43.060;25.618;2022-12-26T16:31:27;4.90;99.90
68354;DHT22;55274;43.060;25.618;2022-12-26T16:33:56;4.90;99.90
68354;DHT22;55274;43.060;25.618;2022-12-26T16:36:24;4.80;99.90
68354;DHT22;55274;43.060;25.618;2022-12-26T16:38:51;4.80;99.90
68354;DHT22;55274;43.060;25.618;2022-12-26T16:41:27;4.70;99.90
68354;DHT22;55274;43.060;25.618;2022-12-26T16:43:55;4.70;99.90
68354;DHT22;55274;43.060;25.618;2022-12-26T16:46:27;4.70;99.90
68354;DHT22;55274;43.060;25.618;2022-12-26T16:49:00;4.60;99.90
68354;DHT22;55274;43.060;25.618;2022-12-26T16:54:24;4.50;99.90
68354;DHT22;55274;43.060;25.618;2022-12-26T16:57:04;4.50;99.90
68354;DHT22;55274;43.060;25.618;2022-12-26T17:02:26;4.40;99.90
68354;DHT22;55274;43.060;25.618;2022-12-26T17:04:58;4.40;99.90
68354;DHT22;55274;43.060;25.618;2022-12-26T17:07:25;4.30;99.90
68354;DHT22;55274;43.060;25.618;2022-12-26T17:09:57;4.30;99.90
68354;DHT22;55274;43.060;25.618;2022-12-26T17:12:27;4.30;99.90
68354;DHT22;55274;43.060;25.618;2022-12-26T17:14:54;4.20;99.90
68354;DHT22;55274;43.060;25.618;2022-12-26T17:19:48;4.10;99.90
68354;DHT22;55274;43.060;25.618;2022-12-26T17:22:31;4.00;99.90
68354;DHT22;55274;43.060;25.618;2022-12-26T17:25:23;4.00;99.90
68354;DHT22;55274;43.060;25.618;2022-12-26T17:30:47;3.90;99.90
68354;DHT22;55274;43.060;25.618;2022-12-26T17:33:26;3.90;99.90
68354;DHT22;55274;43.060;25.618;2022-12-26T17:36:13;3.90;99.90
68354;DHT22;55274;43.060;25.618;2022-12-26T17:38:41;3.80;99.90
68354;DHT22;55274;43.060;25.618;2022-12-26T17:41:13;3.80;99.90
68354;DHT22;55274;43.060;25.618;2022-12-26T17:43:40;3.70;99.90
68354;DHT22;55274;43.060;25.618;2022-12-26T17:46:09;3.70;99.90
68354;DHT22;55274;43.060;25.618;2022-12-26T17:48:37;3.70;99.90
68354;DHT22;55274;43.060;25.618;2022-12-26T17:51:06;3.60;99.90
68354;DHT22;55274;43.060;25.618;2022-12-26T17:53:33;3.60;99.90
68354;DHT22;55274;43.060;25.618;2022-12-26T17:56:14;3.60;99.90
68354;DHT22;55274;43.060;25.618;2022-12-26T17:58:40;3.60;99.90
68354;DHT22;55274;43.060;25.618;2022-12-26T18:01:06;3.50;99.90
68354;DHT22;55274;43.060;25.618;2022-12-26T18:03:32;3.50;99.90
68354;DHT22;55274;43.060;25.618;2022-12-26T18:05:58;3.50;99.90
68354;DHT22;55274;43.060;25.618;2022-12-26T18:08:36;3.40;99.90
68354;DHT22;55274;43.060;25.618;2022-12-26T18:11:07;3.40;99.90
68354;DHT22;55274;43.060;25.618;2022-12-26T18:13:33;3.40;99.90
68354;DHT22;55274;43.060;25.618;2022-12-26T18:15:59;3.40;99.90
68354;DHT22;55274;43.060;25.618;2022-12-26T18:18:36;3.30;99.90
68354;DHT22;55274;43.060;25.618;2022-12-26T18:21:03;3.40;99.90
68354;DHT22;55274;43.060;25.618;2022-12-26T18:23:30;3.40;99.90
68354;DHT22;55274;43.060;25.618;2022-12-26T18:25:59;3.30;99.90
68354;DHT22;55274;43.060;25.618;2022-12-26T18:28:25;3.30;99.90
68354;DHT22;55274;43.060;25.618;2022-12-26T18:30:51;3.20;99.90
68354;DHT22;55274;43.060;25.618;2022-12-26T18:33:17;3.20;99.90
68354;DHT22;55274;43.060;25.618;2022-12-26T18:35:43;3.10;99.90
68354;DHT22;55274;43.060;25.618;2022-12-26T18:38:18;3.10;99.90
68354;DHT22;55274;43.060;25.618;2022-12-26T18:40:47;3.00;99.90
68354;DHT22;55274;43.060;25.618;2022-12-26T18:43:13;3.00;99.90
68354;DHT22;55274;43.060;25.618;2022-12-26T18:45:40;3.00;99.90
68354;DHT22;55274;43.060;25.618;2022-12-26T18:48:09;3.00;99.90
68354;DHT22;55274;43.060;25.618;2022-12-26T18:50:35;2.90;99.90
68354;DHT22;55274;43.060;25.618;2022-12-26T18:53:01;2.90;99.90
68354;DHT22;55274;43.060;25.618;2022-12-26T18:55:28;2.80;99.90
68354;DHT22;55274;43.060;25.618;2022-12-26T18:57:54;2.80;99.90
68354;DHT22;55274;43.060;25.618;2022-12-26T19:00:21;2.80;99.90
68354;DHT22;55274;43.060;25.618;2022-12-26T19:02:48;2.80;99.90
68354;DHT22;55274;43.060;25.618;2022-12-26T19:07:46;2.80;99.90
68354;DHT22;55274;43.060;25.618;2022-12-26T19:10:18;2.70;99.90
68354;DHT22;55274;43.060;25.618;2022-12-26T19:12:45;2.70;99.90
68354;DHT22;55274;43.060;25.618;2022-12-26T19:15:12;2.70;99.90
68354;DHT22;55274;43.060;25.618;2022-12-26T19:17:39;2.60;99.90
68354;DHT22;55274;43.060;25.618;2022-12-26T19:20:07;2.60;99.90
68354;DHT22;55274;43.060;25.618;2022-12-26T19:22:33;2.50;99.90
68354;DHT22;55274;43.060;25.618;2022-12-26T19:24:59;2.50;99.90
68354;DHT22;55274;43.060;25.618;2022-12-26T19:27:25;2.50;99.90
68354;DHT22;55274;43.060;25.618;2022-12-26T19:29:51;2.50;99.90
68354;DHT22;55274;43.060;25.618;2022-12-26T19:32:16;2.50;99.90
68354;DHT22;55274;43.060;25.618;2022-12-26T19:34:42;2.40;99.90
68354;DHT22;55274;43.060;25.618;2022-12-26T19:37:08;2.40;99.90